Time;durP1;ratioP1;P1;durP2;ratioP2;P2;SDS_P1;SDS_P2;PMS_P1;PMS_P2;Temp;Humidity;BMP_temperature;BMP_pressure;BME280_temperature;BME280_humidity;BME280_pressure;Samples;Min_cycle;Max_cycle;Signal;HPM_P1;HPM_P2
2021/12/02 00:00:33;;;;;;;;;6.00;6.00;;;;;;;;5045071;28;11243;-83
2021/12/02 00:03:03;;;;;;;;;7.50;6.00;;;;;;;;5044798;28;11097;-80
2021/12/02 00:05:32;;;;;;;;;8.75;8.00;;;;;;;;5050960;28;11086;-82
2021/12/02 00:08:00;;;;;;;;;6.25;4.50;;;;;;;;5059970;28;11278;-81
2021/12/02 00:10:30;;;;;;;;;5.00;5.00;;;;;;;;5028812;28;11027;-82
2021/12/02 00:12:58;;;;;;;;;6.50;6.50;;;;;;;;5030761;28;11120;-82
2021/12/02 00:15:32;;;;;;;;;5.50;5.50;;;;;;;;5029287;28;11121;-82
2021/12/02 00:18:19;;;;;;;;;9.00;5.00;;;;;;;;5050511;28;11003;-82
2021/12/02 00:21:06;;;;;;;;;11.50;5.75;;;;;;;;5050274;28;11124;-82
2021/12/02 00:23:37;;;;;;;;;4.00;4.00;;;;;;;;5052398;28;11229;-81
2021/12/02 00:26:09;;;;;;;;;9.50;6.50;;;;;;;;5051741;28;11150;-82
2021/12/02 00:28:38;;;;;;;;;8.75;5.00;;;;;;;;5066989;28;10918;-83
2021/12/02 00:31:06;;;;;;;;;4.00;4.00;;;;;;;;5041611;28;11763;-83
2021/12/02 00:33:35;;;;;;;;;5.25;5.00;;;;;;;;5029867;28;10934;-82
2021/12/02 00:36:04;;;;;;;;;6.00;4.50;;;;;;;;5056487;28;11075;-82
2021/12/02 00:38:31;;;;;;;;;5.00;5.00;;;;;;;;5043365;28;10938;-80
2021/12/02 00:40:59;;;;;;;;;5.75;3.00;;;;;;;;5045382;28;11248;-82
2021/12/02 00:43:26;;;;;;;;;2.25;2.25;;;;;;;;5047039;28;11012;-81
2021/12/02 00:45:54;;;;;;;;;6.00;1.75;;;;;;;;5045347;28;11031;-82
2021/12/02 00:48:21;;;;;;;;;2.50;2.00;;;;;;;;5057494;28;10936;-80
2021/12/02 00:50:50;;;;;;;;;2.50;2.50;;;;;;;;5039214;28;10998;-79
2021/12/02 00:53:21;;;;;;;;;5.25;3.25;;;;;;;;5047871;28;11891;-80
2021/12/02 00:55:49;;;;;;;;;6.25;4.25;;;;;;;;5047013;28;11003;-80
2021/12/02 00:58:19;;;;;;;;;2.00;2.00;;;;;;;;5046521;28;10939;-80
2021/12/02 01:00:50;;;;;;;;;8.50;4.50;;;;;;;;5045332;28;10996;-80
2021/12/02 01:03:19;;;;;;;;;10.00;5.50;;;;;;;;5063849;28;11090;-79
2021/12/02 01:05:46;;;;;;;;;3.75;3.25;;;;;;;;5036495;28;11195;-79
2021/12/02 01:08:14;;;;;;;;;7.75;5.00;;;;;;;;5055227;28;10853;-82
2021/12/02 01:10:43;;;;;;;;;6.75;5.00;;;;;;;;5053840;28;11226;-80
2021/12/02 01:13:10;;;;;;;;;5.00;3.25;;;;;;;;5047407;28;11127;-79
2021/12/02 01:15:38;;;;;;;;;7.25;5.50;;;;;;;;5050651;28;11102;-82
2021/12/02 01:18:06;;;;;;;;;4.50;4.50;;;;;;;;5047020;28;11020;-84
2021/12/02 01:20:33;;;;;;;;;4.50;4.50;;;;;;;;5046371;28;11032;-86
2021/12/02 01:23:01;;;;;;;;;3.75;3.75;;;;;;;;5036274;28;11197;-84
2021/12/02 01:25:31;;;;;;;;;3.75;3.75;;;;;;;;5035160;28;11018;-85
2021/12/02 01:28:01;;;;;;;;;3.25;3.25;;;;;;;;5063069;28;11188;-84
2021/12/02 01:30:29;;;;;;;;;3.00;2.00;;;;;;;;5037609;28;11226;-81
2021/12/02 01:33:00;;;;;;;;;4.25;4.25;;;;;;;;5049807;28;11597;-80
2021/12/02 01:35:28;;;;;;;;;1.00;1.00;;;;;;;;5030244;28;11284;-84
2021/12/02 01:37:56;;;;;;;;;2.00;2.00;;;;;;;;5046873;28;12004;-82
2021/12/02 01:40:23;;;;;;;;;1.50;1.50;;;;;;;;5053196;28;11261;-82
2021/12/02 01:42:54;;;;;;;;;2.00;0.25;;;;;;;;5046415;28;11491;-83
2021/12/02 01:45:25;;;;;;;;;7.00;4.00;;;;;;;;5044946;28;11251;-80
2021/12/02 01:47:56;;;;;;;;;2.00;2.00;;;;;;;;5039945;28;11597;-81
2021/12/02 01:50:25;;;;;;;;;2.75;2.75;;;;;;;;5044871;28;11489;-82
2021/12/02 01:52:57;;;;;;;;;0.00;0.00;;;;;;;;5044586;28;12260;-83
2021/12/02 01:55:25;;;;;;;;;2.25;2.25;;;;;;;;5045372;28;11559;-83
2021/12/02 01:58:00;;;;;;;;;10.25;10.25;;;;;;;;5046012;28;11537;-82
2021/12/02 02:00:33;;;;;;;;;1.50;1.50;;;;;;;;5049522;28;11504;-82
2021/12/02 02:03:01;;;;;;;;;3.00;0.00;;;;;;;;5044541;28;11513;-81
2021/12/02 02:05:30;;;;;;;;;2.50;2.00;;;;;;;;5046033;28;12177;-80
2021/12/02 02:08:02;;;;;;;;;5.25;5.25;;;;;;;;5045096;28;11502;-81
2021/12/02 02:10:31;;;;;;;;;1.00;1.00;;;;;;;;5045718;28;11498;-81
2021/12/02 02:13:01;;;;;;;;;2.00;2.00;;;;;;;;5044765;28;11538;-82
2021/12/02 02:15:30;;;;;;;;;10.50;7.25;;;;;;;;5026699;28;11506;-82
2021/12/02 02:18:01;;;;;;;;;2.00;2.00;;;;;;;;5045682;28;11539;-81
2021/12/02 02:20:38;;;;;;;;;0.75;0.75;;;;;;;;5044739;28;11513;-83
2021/12/02 02:23:07;;;;;;;;;3.00;0.00;;;;;;;;5049741;28;11136;-82
2021/12/02 02:25:34;;;;;;;;;1.75;1.75;;;;;;;;5023468;28;11349;-82
2021/12/02 02:28:02;;;;;;;;;4.25;4.25;;;;;;;;5044838;28;11578;-82
2021/12/02 02:30:30;;;;;;;;;1.00;1.00;;;;;;;;5026710;28;12877;-82
2021/12/02 02:32:57;;;;;;;;;0.50;0.00;;;;;;;;5048059;28;11162;-82
2021/12/02 02:35:25;;;;;;;;;0.00;0.00;;;;;;;;5056219;28;11217;-82
2021/12/02 02:37:54;;;;;;;;;1.25;1.25;;;;;;;;5043177;28;11499;-82
2021/12/02 02:40:23;;;;;;;;;0.00;0.00;;;;;;;;5045286;28;11311;-82
2021/12/02 02:42:57;;;;;;;;;1.25;0.00;;;;;;;;5049588;28;11213;-82
2021/12/02 02:45:24;;;;;;;;;0.00;0.00;;;;;;;;5044964;28;11245;-82
2021/12/02 02:47:52;;;;;;;;;0.75;0.50;;;;;;;;5044836;28;11586;-82
2021/12/02 02:50:20;;;;;;;;;0.00;0.00;;;;;;;;5044931;28;12353;-82
2021/12/02 02:52:49;;;;;;;;;0.50;0.00;;;;;;;;5052673;28;11506;-82
2021/12/02 02:55:23;;;;;;;;;0.00;0.00;;;;;;;;5043526;28;11579;-82
2021/12/02 02:58:00;;;;;;;;;0.00;0.00;;;;;;;;5044307;28;12251;-82
2021/12/02 03:00:32;;;;;;;;;0.00;0.00;;;;;;;;5030293;28;11396;-83
2021/12/02 03:03:13;;;;;;;;;1.00;0.00;;;;;;;;5056062;28;11486;-83
2021/12/02 03:05:52;;;;;;;;;0.00;0.00;;;;;;;;5058476;28;11461;-82
2021/12/02 03:08:22;;;;;;;;;0.00;0.00;;;;;;;;5058117;28;12030;-81
2021/12/02 03:10:55;;;;;;;;;0.00;0.00;;;;;;;;5044544;28;11511;-81
2021/12/02 03:13:36;;;;;;;;;0.00;0.00;;;;;;;;5050702;28;11545;-82
2021/12/02 03:18:51;;;;;;;;;1.00;1.00;;;;;;;;5064811;28;11460;-82
2021/12/02 03:21:19;;;;;;;;;1.25;1.25;;;;;;;;5059113;28;11563;-81
2021/12/02 03:23:50;;;;;;;;;1.75;1.00;;;;;;;;5044438;28;11599;-82
2021/12/02 03:26:19;;;;;;;;;3.50;2.00;;;;;;;;5043380;28;11520;-82
2021/12/02 03:28:48;;;;;;;;;1.00;1.00;;;;;;;;5044782;28;11610;-83
2021/12/02 03:31:15;;;;;;;;;1.00;1.00;;;;;;;;5043191;28;11519;-82
2021/12/02 03:33:43;;;;;;;;;4.00;2.00;;;;;;;;5053433;28;11482;-83
2021/12/02 03:36:11;;;;;;;;;0.00;0.00;;;;;;;;5057339;28;11480;-82
2021/12/02 03:38:40;;;;;;;;;0.50;0.50;;;;;;;;5062922;28;11498;-81
2021/12/02 03:41:08;;;;;;;;;1.00;1.00;;;;;;;;5045951;28;11500;-81
2021/12/02 03:43:38;;;;;;;;;5.00;4.00;;;;;;;;5037785;28;11481;-80
2021/12/02 03:46:07;;;;;;;;;1.00;1.00;;;;;;;;5038888;28;11594;-81
2021/12/02 03:48:37;;;;;;;;;1.00;1.00;;;;;;;;5039799;28;11479;-82
2021/12/02 03:51:06;;;;;;;;;4.75;1.75;;;;;;;;5047373;28;11470;-81
2021/12/02 03:53:34;;;;;;;;;1.00;1.00;;;;;;;;5043629;28;11489;-81
2021/12/02 03:56:01;;;;;;;;;0.25;0.25;;;;;;;;5042720;28;11490;-82
2021/12/02 03:58:29;;;;;;;;;2.00;0.50;;;;;;;;5045069;28;11488;-82
2021/12/02 04:00:58;;;;;;;;;3.00;1.00;;;;;;;;5029492;28;11425;-81
2021/12/02 04:03:25;;;;;;;;;0.25;0.25;;;;;;;;5043219;28;11512;-81
2021/12/02 04:05:52;;;;;;;;;0.00;0.00;;;;;;;;5017748;28;11480;-82
2021/12/02 04:08:27;;;;;;;;;1.00;1.00;;;;;;;;5022858;28;11662;-82
2021/12/02 04:10:59;;;;;;;;;0.50;0.50;;;;;;;;5043603;28;11500;-82
2021/12/02 04:13:30;;;;;;;;;2.00;2.00;;;;;;;;5021140;28;11511;-82
2021/12/02 04:16:03;;;;;;;;;0.00;0.00;;;;;;;;5036205;28;11572;-82
2021/12/02 04:18:30;;;;;;;;;1.00;1.00;;;;;;;;5042922;28;11612;-82
2021/12/02 04:20:57;;;;;;;;;0.00;0.00;;;;;;;;5043073;28;11541;-82
2021/12/02 04:23:25;;;;;;;;;0.00;0.00;;;;;;;;5039956;28;11471;-82
2021/12/02 04:25:52;;;;;;;;;0.25;0.00;;;;;;;;5047496;28;11576;-82
2021/12/02 04:28:19;;;;;;;;;0.00;0.00;;;;;;;;5041638;28;11561;-82
2021/12/02 04:30:47;;;;;;;;;9.50;4.75;;;;;;;;5034441;28;11468;-84
2021/12/02 04:33:15;;;;;;;;;2.75;2.00;;;;;;;;5050958;28;11654;-84
2021/12/02 04:35:54;;;;;;;;;2.00;2.00;;;;;;;;5048389;28;11574;-83
2021/12/02 04:38:22;;;;;;;;;1.25;1.00;;;;;;;;5049853;28;11691;-81
2021/12/02 04:40:49;;;;;;;;;1.75;0.00;;;;;;;;5024248;28;11599;-81
2021/12/02 04:43:16;;;;;;;;;0.00;0.00;;;;;;;;5042612;28;11567;-81
2021/12/02 04:45:44;;;;;;;;;5.00;1.75;;;;;;;;5045289;28;12360;-83
2021/12/02 04:48:11;;;;;;;;;1.00;0.00;;;;;;;;5052915;28;11645;-83
2021/12/02 04:50:40;;;;;;;;;1.00;1.00;;;;;;;;5048986;28;11621;-82
2021/12/02 04:53:07;;;;;;;;;0.25;0.25;;;;;;;;5034555;28;11555;-83
2021/12/02 04:55:35;;;;;;;;;0.00;0.00;;;;;;;;5032678;28;11575;-82
2021/12/02 04:58:02;;;;;;;;;0.00;0.00;;;;;;;;5009453;28;11622;-81
2021/12/02 05:00:29;;;;;;;;;0.00;0.00;;;;;;;;5043492;28;11478;-82
2021/12/02 05:02:57;;;;;;;;;2.00;0.00;;;;;;;;5046100;28;11494;-80
2021/12/02 05:05:25;;;;;;;;;2.00;0.00;;;;;;;;5045483;28;11690;-83
2021/12/02 05:07:59;;;;;;;;;0.50;0.50;;;;;;;;5047388;28;12320;-80
2021/12/02 05:10:26;;;;;;;;;2.00;0.00;;;;;;;;5050556;28;11640;-79
2021/12/02 05:12:54;;;;;;;;;1.00;0.00;;;;;;;;5032179;28;11548;-79
2021/12/02 05:15:21;;;;;;;;;1.00;0.00;;;;;;;;5045391;28;11544;-79
2021/12/02 05:17:49;;;;;;;;;1.00;1.00;;;;;;;;5058511;28;12229;-80
2021/12/02 05:20:16;;;;;;;;;0.00;0.00;;;;;;;;5065954;28;11546;-80
2021/12/02 05:22:45;;;;;;;;;1.00;1.00;;;;;;;;5065859;28;11660;-79
2021/12/02 05:25:14;;;;;;;;;1.00;0.00;;;;;;;;5052706;28;11565;-79
2021/12/02 05:27:41;;;;;;;;;1.75;1.00;;;;;;;;5047950;28;11544;-79
2021/12/02 05:30:10;;;;;;;;;2.50;1.00;;;;;;;;5050078;28;11571;-81
2021/12/02 05:32:37;;;;;;;;;0.75;0.00;;;;;;;;5047803;28;11569;-79
2021/12/02 05:35:09;;;;;;;;;1.00;1.00;;;;;;;;5035628;28;11546;-81
2021/12/02 05:37:37;;;;;;;;;1.25;1.25;;;;;;;;5041434;28;11536;-79
2021/12/02 05:40:05;;;;;;;;;2.50;2.00;;;;;;;;5017776;28;11615;-81
2021/12/02 05:42:35;;;;;;;;;1.25;1.00;;;;;;;;5025771;28;12380;-82
2021/12/02 05:45:03;;;;;;;;;0.50;0.50;;;;;;;;5029631;28;12402;-82
2021/12/02 05:47:30;;;;;;;;;0.00;0.00;;;;;;;;5044345;28;11560;-81
2021/12/02 05:49:57;;;;;;;;;1.00;1.00;;;;;;;;5042820;28;11589;-81
2021/12/02 05:52:24;;;;;;;;;2.00;0.00;;;;;;;;5046600;28;11609;-81
2021/12/02 05:54:52;;;;;;;;;1.00;1.00;;;;;;;;5025034;28;11644;-82
2021/12/02 05:57:20;;;;;;;;;1.00;1.00;;;;;;;;5036022;28;11666;-84
2021/12/02 06:06:01;;;;;;;;;0.00;0.00;;;;;;;;5036939;28;11518;-82
2021/12/02 06:08:29;;;;;;;;;1.00;1.00;;;;;;;;5023070;28;11579;-81
2021/12/02 06:10:56;;;;;;;;;2.50;1.00;;;;;;;;5025007;28;11528;-81
2021/12/02 06:13:24;;;;;;;;;2.00;2.00;;;;;;;;5024423;28;11536;-82
2021/12/02 06:15:53;;;;;;;;;1.25;1.25;;;;;;;;5023465;28;11652;-81
2021/12/02 06:18:20;;;;;;;;;2.00;2.00;;;;;;;;5024481;28;11575;-81
2021/12/02 06:20:53;;;;;;;;;1.75;1.75;;;;;;;;5023941;28;11545;-80
2021/12/02 06:23:20;;;;;;;;;4.00;4.00;;;;;;;;5024839;28;11554;-81
2021/12/02 06:25:48;;;;;;;;;2.00;2.00;;;;;;;;5024030;28;11527;-74
2021/12/02 06:28:16;;;;;;;;;2.00;2.00;;;;;;;;5021482;28;11647;-73
2021/12/02 06:30:44;;;;;;;;;2.00;2.00;;;;;;;;5022373;28;12400;-77
2021/12/02 06:33:13;;;;;;;;;3.50;1.25;;;;;;;;5022962;28;11539;-76
2021/12/02 06:35:41;;;;;;;;;4.75;1.00;;;;;;;;5023415;28;11545;-77
2021/12/02 06:38:09;;;;;;;;;2.00;2.00;;;;;;;;5029231;28;11521;-77
2021/12/02 06:40:37;;;;;;;;;0.00;0.00;;;;;;;;5024304;28;12462;-76
2021/12/02 06:43:05;;;;;;;;;2.00;1.50;;;;;;;;5025547;28;12302;-77
2021/12/02 06:45:32;;;;;;;;;1.00;1.00;;;;;;;;5018267;28;11708;-77
2021/12/02 06:48:00;;;;;;;;;1.00;1.00;;;;;;;;5043847;28;11643;-77
2021/12/02 06:50:30;;;;;;;;;1.00;1.00;;;;;;;;5043905;28;11535;-77
2021/12/02 06:52:58;;;;;;;;;1.25;1.25;;;;;;;;5032236;28;12331;-77
2021/12/02 06:55:25;;;;;;;;;0.75;0.75;;;;;;;;5024786;28;11623;-77
2021/12/02 06:57:52;;;;;;;;;1.00;1.00;;;;;;;;5031005;28;11529;-77
2021/12/02 07:00:21;;;;;;;;;0.25;0.25;;;;;;;;5036347;28;11554;-77
2021/12/02 07:02:49;;;;;;;;;2.00;2.00;;;;;;;;5031254;28;11548;-77
2021/12/02 07:05:18;;;;;;;;;1.50;1.50;;;;;;;;5044714;28;11678;-77
2021/12/02 07:07:47;;;;;;;;;1.00;1.00;;;;;;;;5058045;28;11592;-77
2021/12/02 07:10:17;;;;;;;;;0.00;0.00;;;;;;;;5064788;28;11551;-77
2021/12/02 07:12:46;;;;;;;;;0.75;0.75;;;;;;;;5063806;28;11557;-78
2021/12/02 07:15:17;;;;;;;;;0.00;0.00;;;;;;;;5037334;28;11565;-78
2021/12/02 07:17:46;;;;;;;;;2.00;0.75;;;;;;;;5047633;28;12320;-78
2021/12/02 07:20:13;;;;;;;;;0.25;0.00;;;;;;;;5043212;28;11546;-77
2021/12/02 07:22:41;;;;;;;;;2.00;2.00;;;;;;;;5044919;28;11636;-78
2021/12/02 07:25:11;;;;;;;;;0.00;0.00;;;;;;;;5043161;28;12229;-78
2021/12/02 07:27:38;;;;;;;;;0.00;0.00;;;;;;;;5026345;28;11544;-77
2021/12/02 07:30:07;;;;;;;;;2.00;0.75;;;;;;;;5043221;28;11628;-79
2021/12/02 07:32:37;;;;;;;;;2.00;1.00;;;;;;;;5042407;28;12145;-77
2021/12/02 07:35:09;;;;;;;;;0.25;0.25;;;;;;;;5026820;28;11544;-78
2021/12/02 07:37:37;;;;;;;;;1.00;1.00;;;;;;;;5042956;28;11562;-78
2021/12/02 07:40:05;;;;;;;;;1.00;1.00;;;;;;;;5050670;28;11622;-78
2021/12/02 07:42:34;;;;;;;;;2.00;0.75;;;;;;;;5042826;28;11650;-77
2021/12/02 07:45:03;;;;;;;;;4.25;0.00;;;;;;;;5026739;28;12398;-78
2021/12/02 07:47:30;;;;;;;;;4.00;1.00;;;;;;;;5042998;28;10985;-78
2021/12/02 07:49:58;;;;;;;;;1.00;1.00;;;;;;;;5057094;28;11539;-78
2021/12/02 07:52:26;;;;;;;;;0.25;0.25;;;;;;;;5055049;28;11544;-78
2021/12/02 07:54:55;;;;;;;;;2.00;1.00;;;;;;;;5043009;28;11660;-78
2021/12/02 07:57:23;;;;;;;;;0.50;0.50;;;;;;;;5044102;28;11571;-78
2021/12/02 07:59:53;;;;;;;;;1.00;1.00;;;;;;;;5042698;28;11662;-78
2021/12/02 08:02:20;;;;;;;;;1.00;1.00;;;;;;;;5043498;28;11501;-78
2021/12/02 08:04:47;;;;;;;;;1.00;1.00;;;;;;;;5042652;28;11568;-78
2021/12/02 08:07:15;;;;;;;;;1.00;1.00;;;;;;;;5051668;28;11549;-78
2021/12/02 08:09:42;;;;;;;;;0.00;0.00;;;;;;;;5044878;28;11707;-77
2021/12/02 08:12:10;;;;;;;;;0.00;0.00;;;;;;;;5042958;28;11574;-77
2021/12/02 08:14:37;;;;;;;;;2.00;0.50;;;;;;;;5043336;28;12163;-77
2021/12/02 08:17:07;;;;;;;;;1.00;1.00;;;;;;;;5042392;28;11586;-78
2021/12/02 08:19:34;;;;;;;;;1.00;1.00;;;;;;;;5043835;28;11647;-78
2021/12/02 08:22:01;;;;;;;;;1.00;1.00;;;;;;;;5042480;28;11688;-78
2021/12/02 08:24:29;;;;;;;;;1.00;1.00;;;;;;;;5024911;28;11593;-78
2021/12/02 08:26:56;;;;;;;;;0.00;0.00;;;;;;;;5047476;28;11556;-78
2021/12/02 08:29:24;;;;;;;;;1.00;0.00;;;;;;;;5046085;28;11538;-77
2021/12/02 08:31:51;;;;;;;;;0.00;0.00;;;;;;;;5044250;28;11528;-77
2021/12/02 08:34:20;;;;;;;;;1.00;0.00;;;;;;;;5045572;28;11649;-77
2021/12/02 08:36:52;;;;;;;;;1.50;0.00;;;;;;;;5047725;28;12451;-78
2021/12/02 08:39:23;;;;;;;;;0.00;0.00;;;;;;;;5049766;28;11570;-78
2021/12/02 08:41:53;;;;;;;;;2.00;0.00;;;;;;;;5047161;28;11664;-78
2021/12/02 08:44:20;;;;;;;;;0.00;0.00;;;;;;;;5047303;28;11649;-78
2021/12/02 08:46:48;;;;;;;;;1.50;0.00;;;;;;;;5046304;28;11562;-78
2021/12/02 08:49:16;;;;;;;;;0.25;0.25;;;;;;;;5047230;28;11562;-78
2021/12/02 08:51:45;;;;;;;;;0.75;0.75;;;;;;;;5045609;28;11568;-78
2021/12/02 08:54:13;;;;;;;;;1.00;0.00;;;;;;;;5029667;28;11582;-77
2021/12/02 08:56:41;;;;;;;;;2.25;0.25;;;;;;;;5027655;28;12411;-77
2021/12/02 08:59:10;;;;;;;;;0.00;0.00;;;;;;;;5046860;28;11577;-77
2021/12/02 09:01:37;;;;;;;;;2.00;0.50;;;;;;;;5046177;28;11498;-77
2021/12/02 09:04:05;;;;;;;;;1.00;0.00;;;;;;;;5046157;28;12505;-78
2021/12/02 09:06:33;;;;;;;;;2.00;0.00;;;;;;;;5046341;28;11539;-77
2021/12/02 09:09:02;;;;;;;;;4.00;0.00;;;;;;;;5045872;28;11639;-78
2021/12/02 09:11:31;;;;;;;;;0.00;0.00;;;;;;;;5046798;28;11569;-78
2021/12/02 09:14:01;;;;;;;;;0.50;0.25;;;;;;;;5045427;28;11560;-78
2021/12/02 09:16:29;;;;;;;;;0.75;0.75;;;;;;;;5028862;28;11550;-77
2021/12/02 09:18:57;;;;;;;;;0.00;0.00;;;;;;;;5046303;28;11543;-77
2021/12/02 09:21:25;;;;;;;;;1.00;0.00;;;;;;;;5052460;28;12322;-77
2021/12/02 09:23:52;;;;;;;;;0.00;0.00;;;;;;;;5067137;28;11549;-77
2021/12/02 09:26:22;;;;;;;;;4.00;0.25;;;;;;;;5048520;28;11642;-77
2021/12/02 09:28:54;;;;;;;;;0.00;0.00;;;;;;;;5046372;28;11578;-77
2021/12/02 09:31:22;;;;;;;;;0.00;0.00;;;;;;;;5044529;28;11574;-77
2021/12/02 09:33:49;;;;;;;;;0.75;0.00;;;;;;;;5046076;28;11590;-77
2021/12/02 09:36:17;;;;;;;;;1.50;0.00;;;;;;;;5044808;28;11491;-77
2021/12/02 09:38:45;;;;;;;;;0.00;0.00;;;;;;;;5052614;28;12232;-77
2021/12/02 09:41:13;;;;;;;;;1.00;0.00;;;;;;;;5046403;28;11544;-77
2021/12/02 09:43:42;;;;;;;;;0.00;0.00;;;;;;;;5045519;28;11490;-77
2021/12/02 09:46:10;;;;;;;;;1.50;0.50;;;;;;;;5028541;28;11509;-77
2021/12/02 09:48:38;;;;;;;;;1.00;1.00;;;;;;;;5045032;28;11572;-77
2021/12/02 09:51:08;;;;;;;;;0.00;0.00;;;;;;;;5045857;28;11483;-77
2021/12/02 09:53:48;;;;;;;;;0.00;0.00;;;;;;;;5046070;28;12426;-76
2021/12/02 09:56:20;;;;;;;;;0.00;0.00;;;;;;;;5045192;28;11481;-77
2021/12/02 09:58:52;;;;;;;;;0.00;0.00;;;;;;;;5045991;28;11477;-77
2021/12/02 10:01:22;;;;;;;;;3.00;0.75;;;;;;;;5043686;28;11425;-78
2021/12/02 10:03:55;;;;;;;;;2.00;0.00;;;;;;;;5046062;28;11565;-77
2021/12/02 10:06:27;;;;;;;;;0.00;0.00;;;;;;;;5044935;28;11486;-77
2021/12/02 10:09:00;;;;;;;;;0.00;0.00;;;;;;;;5045734;28;11493;-77
2021/12/02 10:11:28;;;;;;;;;0.00;0.00;;;;;;;;5064840;28;11597;-77
2021/12/02 10:14:13;;;;;;;;;0.00;0.00;;;;;;;;5066019;28;11493;-78
2021/12/02 10:16:44;;;;;;;;;0.00;0.00;;;;;;;;5061017;28;11485;-78
2021/12/02 10:19:13;;;;;;;;;0.00;0.00;;;;;;;;5048188;28;11478;-77
2021/12/02 10:21:42;;;;;;;;;0.00;0.00;;;;;;;;5047103;28;12330;-77
2021/12/02 10:24:11;;;;;;;;;0.00;0.00;;;;;;;;5045767;28;11491;-78
2021/12/02 10:26:42;;;;;;;;;0.00;0.00;;;;;;;;5044598;28;11486;-77
2021/12/02 10:29:13;;;;;;;;;0.00;0.00;;;;;;;;5045585;28;11505;-77
2021/12/02 10:31:46;;;;;;;;;0.00;0.00;;;;;;;;5043958;28;11477;-78
2021/12/02 10:34:14;;;;;;;;;0.00;0.00;;;;;;;;5045177;28;12265;-77
2021/12/02 10:36:44;;;;;;;;;0.00;0.00;;;;;;;;5044167;28;11608;-78
2021/12/02 10:39:14;;;;;;;;;0.50;0.00;;;;;;;;5053514;28;11514;-77
2021/12/02 10:41:44;;;;;;;;;0.00;0.00;;;;;;;;5045116;28;11600;-78
2021/12/02 10:44:29;;;;;;;;;0.00;0.00;;;;;;;;5044332;28;11580;-78
2021/12/02 10:47:03;;;;;;;;;0.00;0.00;;;;;;;;5044791;28;11469;-78
2021/12/02 10:49:32;;;;;;;;;0.00;0.00;;;;;;;;5043939;28;11618;-78
2021/12/02 10:52:03;;;;;;;;;0.00;0.00;;;;;;;;5044721;28;11140;-78
2021/12/02 10:54:33;;;;;;;;;0.00;0.00;;;;;;;;5027322;28;12292;-78
2021/12/02 10:57:07;;;;;;;;;0.00;0.00;;;;;;;;5044088;28;11141;-78
2021/12/02 10:59:42;;;;;;;;;0.00;0.00;;;;;;;;5045231;28;11220;-78
2021/12/02 11:02:18;;;;;;;;;0.00;0.00;;;;;;;;5025262;28;11981;-78
2021/12/02 11:04:48;;;;;;;;;1.00;0.00;;;;;;;;5044661;28;11033;-78
2021/12/02 11:07:23;;;;;;;;;0.00;0.00;;;;;;;;5043633;28;12055;-78
2021/12/02 11:09:52;;;;;;;;;0.00;0.00;;;;;;;;5044456;28;11265;-78
2021/12/02 11:12:24;;;;;;;;;0.00;0.00;;;;;;;;5044588;28;11267;-78
2021/12/02 11:14:58;;;;;;;;;0.00;0.00;;;;;;;;5043561;28;11239;-77
2021/12/02 11:17:29;;;;;;;;;0.00;0.00;;;;;;;;5026772;28;11352;-78
2021/12/02 11:19:58;;;;;;;;;0.00;0.00;;;;;;;;5043865;28;10994;-78
2021/12/02 11:22:28;;;;;;;;;1.00;0.00;;;;;;;;5044350;28;11140;-78
2021/12/02 11:24:56;;;;;;;;;2.00;0.00;;;;;;;;5051265;28;11188;-78
2021/12/02 11:27:25;;;;;;;;;0.50;0.50;;;;;;;;5044827;28;11184;-78
2021/12/02 11:30:15;;;;;;;;;0.00;0.00;;;;;;;;5044295;28;11152;-77
2021/12/02 11:32:46;;;;;;;;;1.00;1.00;;;;;;;;5039805;28;11040;-79
2021/12/02 11:35:18;;;;;;;;;0.00;0.00;;;;;;;;5044371;28;11183;-78
2021/12/02 11:37:47;;;;;;;;;0.00;0.00;;;;;;;;5045741;28;11098;-76
2021/12/02 11:40:18;;;;;;;;;0.00;0.00;;;;;;;;5059624;28;11063;-77
2021/12/02 11:42:46;;;;;;;;;0.00;0.00;;;;;;;;5021649;28;11242;-76
2021/12/02 11:45:16;;;;;;;;;0.00;0.00;;;;;;;;5034842;28;11589;-76
2021/12/02 11:47:43;;;;;;;;;1.00;0.00;;;;;;;;5042280;28;11485;-77
2021/12/02 11:50:13;;;;;;;;;1.00;1.00;;;;;;;;5053277;28;11532;-77
2021/12/02 11:52:41;;;;;;;;;2.00;2.00;;;;;;;;5040070;28;11517;-77
2021/12/02 11:55:12;;;;;;;;;1.25;0.00;;;;;;;;5043517;28;11519;-78
2021/12/02 11:57:40;;;;;;;;;0.00;0.00;;;;;;;;5051951;28;11492;-78
2021/12/02 12:00:10;;;;;;;;;6.50;4.00;;;;;;;;5050634;28;11583;-76
2021/12/02 12:02:40;;;;;;;;;1.75;0.00;;;;;;;;5041150;28;12406;-76
2021/12/02 12:05:08;;;;;;;;;0.00;0.00;;;;;;;;5043823;28;11514;-77
2021/12/02 12:07:49;;;;;;;;;0.25;0.25;;;;;;;;5041827;28;11471;-76
2021/12/02 12:10:28;;;;;;;;;1.50;1.00;;;;;;;;5043305;28;11532;-76
2021/12/02 12:13:12;;;;;;;;;0.00;0.00;;;;;;;;5036021;28;11613;-75
2021/12/02 12:15:42;;;;;;;;;1.00;0.00;;;;;;;;5039323;28;11505;-75
2021/12/02 12:18:19;;;;;;;;;2.00;0.25;;;;;;;;5038043;28;11473;-76
2021/12/02 12:21:01;;;;;;;;;1.00;0.00;;;;;;;;5040946;28;11573;-76
2021/12/02 12:23:43;;;;;;;;;0.00;0.00;;;;;;;;5043167;28;11507;-75
2021/12/02 12:26:24;;;;;;;;;0.00;0.00;;;;;;;;5042630;28;11593;-76
2021/12/02 12:29:29;;;;;;;;;0.00;0.00;;;;;;;;5042854;28;11489;-77
2021/12/02 12:32:40;;;;;;;;;0.00;0.00;;;;;;;;5042398;28;11438;-77
2021/12/02 12:35:15;;;;;;;;;0.25;0.25;;;;;;;;5002408;28;11576;-76
2021/12/02 12:40:43;;;;;;;;;0.00;0.00;;;;;;;;5051393;28;11496;-76
2021/12/02 12:43:26;;;;;;;;;0.00;0.00;;;;;;;;5040984;28;11472;-77
2021/12/02 12:46:15;;;;;;;;;0.00;0.00;;;;;;;;5063007;28;11503;-75
2021/12/02 12:48:43;;;;;;;;;0.75;0.00;;;;;;;;5063561;28;11638;-76
2021/12/02 12:51:31;;;;;;;;;0.00;0.00;;;;;;;;5062159;28;11607;-76
2021/12/02 12:54:00;;;;;;;;;0.25;0.00;;;;;;;;5033146;28;11504;-76
2021/12/02 12:56:30;;;;;;;;;0.00;0.00;;;;;;;;5043115;28;12263;-76
2021/12/02 12:59:00;;;;;;;;;0.00;0.00;;;;;;;;5042706;28;11499;-76
2021/12/02 13:01:28;;;;;;;;;0.00;0.00;;;;;;;;5042658;28;11466;-77
2021/12/02 13:04:09;;;;;;;;;0.00;0.00;;;;;;;;5024471;28;11529;-76
2021/12/02 13:06:59;;;;;;;;;0.00;0.00;;;;;;;;5043354;28;11668;-76
2021/12/02 13:10:03;;;;;;;;;0.00;0.00;;;;;;;;5059391;28;11542;-76
2021/12/02 13:12:49;;;;;;;;;2.50;0.25;;;;;;;;5046468;28;11510;-75
2021/12/02 13:15:21;;;;;;;;;6.50;6.50;;;;;;;;5046776;28;11510;-76
2021/12/02 13:17:50;;;;;;;;;1.25;1.25;;;;;;;;5045699;28;11614;-76
2021/12/02 13:20:37;;;;;;;;;0.00;0.00;;;;;;;;5046716;28;11631;-76
2021/12/02 13:23:28;;;;;;;;;0.75;0.75;;;;;;;;5045967;28;11489;-77
2021/12/02 13:25:58;;;;;;;;;7.50;6.50;;;;;;;;5027857;28;11567;-76
2021/12/02 13:28:28;;;;;;;;;4.75;4.75;;;;;;;;5046573;28;11633;-76
2021/12/02 13:30:58;;;;;;;;;1.75;1.50;;;;;;;;5044994;28;11537;-77
2021/12/02 13:33:37;;;;;;;;;0.00;0.00;;;;;;;;5046625;28;11536;-75
2021/12/02 13:36:05;;;;;;;;;0.00;0.00;;;;;;;;5051125;28;11626;-76
2021/12/02 13:38:34;;;;;;;;;0.00;0.00;;;;;;;;5054746;28;11465;-76
2021/12/02 13:41:13;;;;;;;;;0.00;0.00;;;;;;;;5033409;28;11521;-76
2021/12/02 13:43:55;;;;;;;;;0.00;0.00;;;;;;;;5044982;28;12338;-76
2021/12/02 13:46:33;;;;;;;;;0.00;0.00;;;;;;;;5045879;28;11493;-76
2021/12/02 13:49:02;;;;;;;;;1.00;0.00;;;;;;;;5046285;28;11502;-76
2021/12/02 13:54:27;;;;;;;;;1.00;1.00;;;;;;;;5022075;28;11490;-76
2021/12/02 13:56:57;;;;;;;;;2.50;2.50;;;;;;;;5044810;28;11534;-76
2021/12/02 13:59:26;;;;;;;;;9.50;5.00;;;;;;;;5046095;28;11580;-76
2021/12/02 14:01:58;;;;;;;;;5.75;5.75;;;;;;;;5039961;28;11515;-76
2021/12/02 14:04:26;;;;;;;;;5.75;4.25;;;;;;;;5037629;28;11599;-76
2021/12/02 14:07:18;;;;;;;;;4.25;4.25;;;;;;;;5027931;28;11568;-76
2021/12/02 14:09:55;;;;;;;;;2.00;2.00;;;;;;;;5041127;28;11539;-76
2021/12/02 14:12:28;;;;;;;;;1.75;1.75;;;;;;;;5045844;28;11553;-76
2021/12/02 14:15:00;;;;;;;;;0.00;0.00;;;;;;;;5045213;28;11503;-76
2021/12/02 14:17:27;;;;;;;;;0.50;0.50;;;;;;;;5026970;28;11495;-77
2021/12/02 14:20:04;;;;;;;;;1.00;1.00;;;;;;;;5045399;28;11494;-76
2021/12/02 14:22:31;;;;;;;;;1.00;1.00;;;;;;;;5043592;28;11562;-76
2021/12/02 14:25:00;;;;;;;;;1.00;0.00;;;;;;;;5045932;28;11663;-77
2021/12/02 14:27:28;;;;;;;;;0.00;0.00;;;;;;;;5044237;28;11592;-76
2021/12/02 14:30:22;;;;;;;;;0.25;0.00;;;;;;;;5045113;28;11658;-77
2021/12/02 14:32:49;;;;;;;;;0.75;0.75;;;;;;;;5017495;28;11499;-76
2021/12/02 14:35:19;;;;;;;;;0.75;0.75;;;;;;;;5029141;28;11543;-76
2021/12/02 14:37:49;;;;;;;;;0.50;0.50;;;;;;;;5032629;28;11571;-76
2021/12/02 14:40:43;;;;;;;;;0.75;0.75;;;;;;;;5052543;28;11572;-77
2021/12/02 14:43:18;;;;;;;;;0.50;0.50;;;;;;;;5043455;28;11563;-77
2021/12/02 14:45:46;;;;;;;;;4.25;1.75;;;;;;;;5050497;28;11513;-77
2021/12/02 14:48:24;;;;;;;;;0.50;0.50;;;;;;;;5064432;28;11500;-77
2021/12/02 14:51:03;;;;;;;;;1.50;0.00;;;;;;;;5047100;28;11615;-76
2021/12/02 14:53:32;;;;;;;;;1.25;0.00;;;;;;;;5045438;28;11539;-76
2021/12/02 14:56:05;;;;;;;;;0.00;0.00;;;;;;;;5044961;28;11517;-77
2021/12/02 14:58:34;;;;;;;;;0.00;0.00;;;;;;;;5045090;28;12382;-77
2021/12/02 15:01:14;;;;;;;;;2.00;0.75;;;;;;;;5042980;28;11536;-74
2021/12/02 15:03:43;;;;;;;;;0.00;0.00;;;;;;;;5051280;28;11557;-76
2021/12/02 15:06:11;;;;;;;;;0.25;0.25;;;;;;;;5026644;28;11505;-76
2021/12/02 15:08:38;;;;;;;;;1.00;1.00;;;;;;;;5027751;28;11598;-76
2021/12/02 15:11:07;;;;;;;;;0.00;0.00;;;;;;;;5042236;28;11570;-76
2021/12/02 15:13:41;;;;;;;;;0.50;0.50;;;;;;;;5045951;28;11616;-76
2021/12/02 15:16:09;;;;;;;;;0.00;0.00;;;;;;;;5043660;28;12406;-76
2021/12/02 15:18:54;;;;;;;;;0.00;0.00;;;;;;;;5048226;28;12305;-76